Live aus Altenrhein
LIVE
LSZR 250720Z VRB05KT 7000 BKN015 11/10 Q1020 BECMG FEW020 RMK D
Zeitraffer heute
2017-09-25 00:14:56
LSZR 242150Z AUTO VRB02KT 8000 -RA SCT050 OVC070 13/11 Q1021
Zeitraffer gestern
2017-09-24 00:14:52
LSZR 232150Z AUTO VRB01KT 9999 NSC 13/11 Q1020
Zeitraffer vor 3 Tagen
2017-09-22 00:14:56
LSZR 212150Z AUTO 11002KT CAVOK 09/08 Q1020